Time;durP1;ratioP1;P1;durP2;ratioP2;P2;SDS_P1;SDS_P2;PMS_P1;PMS_P2;Temp;Humidity;BMP_temperature;BMP_pressure;BME280_temperature;BME280_humidity;BME280_pressure;Samples;Min_cycle;Max_cycle;Signal;HPM_P1;HPM_P2
2022/04/25 00:02:00;;;;;;;23.30;15.93;;;;;;;10.15;82.41;98819.63;5021304;28;20123;-64
2022/04/25 00:04:25;;;;;;;29.50;16.50;;;;;;;10.11;83.00;98820.84;5017215;28;20037;-66
2022/04/25 00:06:50;;;;;;;22.92;14.82;;;;;;;10.17;82.94;98823.84;5026898;28;20064;-66
2022/04/25 00:09:15;;;;;;;24.80;16.77;;;;;;;10.21;82.11;98827.13;5019131;28;20091;-67
2022/04/25 00:11:39;;;;;;;22.10;15.82;;;;;;;10.23;82.38;98825.19;4998571;28;20037;-65
2022/04/25 00:14:06;;;;;;;20.98;15.02;;;;;;;10.24;82.75;98831.38;5017330;28;20131;-64
2022/04/25 00:16:31;;;;;;;26.77;17.08;;;;;;;10.27;82.77;98828.47;5009805;28;20756;-66
2022/04/25 00:18:56;;;;;;;24.17;15.95;;;;;;;10.26;82.83;98835.59;5023646;28;20080;-64
2022/04/25 00:21:21;;;;;;;24.20;16.88;;;;;;;10.29;82.75;98830.00;5022894;28;20059;-65
2022/04/25 00:23:45;;;;;;;24.63;15.65;;;;;;;10.32;82.74;98824.44;5025322;28;20094;-65
2022/04/25 00:26:10;;;;;;;25.10;15.05;;;;;;;10.32;82.50;98832.41;5023184;28;20488;-65
2022/04/25 00:28:35;;;;;;;22.27;15.50;;;;;;;10.35;82.30;98820.66;5026869;28;20086;-67
2022/04/25 00:31:00;;;;;;;21.25;15.38;;;;;;;10.40;82.58;98829.09;5018303;28;20048;-67
2022/04/25 00:33:26;;;;;;;20.70;13.60;;;;;;;10.39;82.32;98824.75;5016298;28;20051;-66
2022/04/25 00:35:51;;;;;;;21.08;14.38;;;;;;;10.33;82.25;98818.13;4998338;28;20047;-61
2022/04/25 00:38:16;;;;;;;22.42;14.75;;;;;;;10.29;82.32;98821.16;5022183;28;20041;-62
2022/04/25 00:40:41;;;;;;;20.00;14.18;;;;;;;10.28;82.17;98816.81;5010221;28;20446;-60
2022/04/25 00:43:06;;;;;;;18.00;13.55;;;;;;;10.29;82.20;98821.16;4994564;28;20052;-61
2022/04/25 00:45:35;;;;;;;20.15;13.48;;;;;;;10.30;81.75;98818.38;5019103;28;20059;-67
2022/04/25 00:48:00;;;;;;;20.67;14.48;;;;;;;10.26;82.55;98818.78;5016956;28;20068;-67
2022/04/25 00:50:25;;;;;;;21.80;13.75;;;;;;;10.26;83.07;98822.28;5027310;28;20041;-70
2022/04/25 00:52:50;;;;;;;17.27;12.43;;;;;;;10.28;82.82;98814.97;5030971;28;20040;-67
2022/04/25 00:55:15;;;;;;;23.02;15.45;;;;;;;10.30;82.75;98820.19;5007944;28;20040;-67
2022/04/25 00:57:40;;;;;;;20.13;14.35;;;;;;;10.33;83.00;98825.28;5043453;28;20054;-61
2022/04/25 01:00:08;;;;;;;19.80;12.88;;;;;;;10.37;82.22;98829.38;5037427;28;20086;-62
2022/04/25 01:02:33;;;;;;;18.48;12.02;;;;;;;10.39;81.81;98830.91;5002291;28;20507;-63
2022/04/25 01:04:58;;;;;;;24.38;14.48;;;;;;;10.22;82.73;98833.31;5036789;28;20525;-61
2022/04/25 01:07:23;;;;;;;20.38;13.30;;;;;;;10.25;83.13;98831.25;5036906;28;20051;-62
2022/04/25 01:09:48;;;;;;;20.00;13.23;;;;;;;10.26;82.83;98843.59;5040417;28;20044;-62
2022/04/25 01:12:13;;;;;;;20.58;13.23;;;;;;;10.22;82.57;98836.81;5033690;28;20047;-62
2022/04/25 01:14:39;;;;;;;22.35;12.18;;;;;;;10.23;82.74;98832.34;5035626;28;20044;-63
2022/04/25 01:17:04;;;;;;;19.50;11.45;;;;;;;10.24;82.33;98842.03;5033776;28;20164;-62
2022/04/25 01:19:29;;;;;;;16.00;11.27;;;;;;;10.19;82.26;98831.75;5033583;28;20048;-62
2022/04/25 01:21:56;;;;;;;15.07;9.55;;;;;;;10.30;81.47;98837.03;5034888;28;20039;-68
2022/04/25 01:27:17;;;;;;;16.65;10.65;;;;;;;10.28;81.15;98838.13;5012994;28;20039;-61
2022/04/25 01:29:50;;;;;;;15.77;10.30;;;;;;;10.21;81.21;98824.47;5013256;28;20582;-61
2022/04/25 01:32:17;;;;;;;18.45;9.82;;;;;;;10.26;81.14;98827.63;5010747;28;20040;-63
2022/04/25 01:34:42;;;;;;;13.32;9.88;;;;;;;10.26;80.81;98824.09;4996095;28;20063;-66
2022/04/25 01:37:09;;;;;;;11.90;9.48;;;;;;;10.25;80.51;98819.75;4992954;28;20048;-62
2022/04/25 01:39:35;;;;;;;14.35;10.32;;;;;;;10.17;80.25;98821.19;5013548;28;20048;-61
2022/04/25 01:42:01;;;;;;;13.50;10.13;;;;;;;10.21;80.65;98826.28;5013704;28;20045;-63
2022/04/25 01:44:25;;;;;;;13.32;10.15;;;;;;;10.22;80.25;98820.84;5013501;28;20052;-60
2022/04/25 01:46:50;;;;;;;18.63;11.13;;;;;;;10.23;80.75;98829.69;4996064;28;20044;-60
2022/04/25 01:49:15;;;;;;;13.50;9.77;;;;;;;10.23;80.41;98821.69;5020115;28;20043;-66
2022/04/25 01:51:39;;;;;;;13.85;9.05;;;;;;;10.25;80.22;98819.75;5021155;28;20102;-65
2022/04/25 01:54:04;;;;;;;13.57;9.75;;;;;;;10.27;79.68;98828.47;5015269;28;20048;-66
2022/04/25 01:56:29;;;;;;;16.17;9.70;;;;;;;10.11;80.06;98815.53;5014525;28;20075;-66
2022/04/25 01:58:54;;;;;;;15.68;10.13;;;;;;;10.04;79.57;98817.88;4996464;28;20068;-62
2022/04/25 02:01:18;;;;;;;19.27;10.23;;;;;;;10.04;79.81;98823.19;4996816;28;20033;-63
2022/04/25 02:03:43;;;;;;;16.48;11.07;;;;;;;9.99;80.15;98824.53;5003830;28;20530;-63
2022/04/25 02:06:08;;;;;;;19.02;11.27;;;;;;;10.05;80.07;98829.31;5011990;28;20052;-63
2022/04/25 02:08:33;;;;;;;17.80;12.00;;;;;;;10.02;80.38;98817.13;5017430;28;20043;-62
2022/04/25 02:13:41;;;;;;;13.75;10.23;;;;;;;10.03;79.81;98821.50;5017442;28;20124;-63
2022/04/25 02:16:06;;;;;;;17.00;10.63;;;;;;;10.00;80.15;98816.41;5017973;28;20123;-62
2022/04/25 02:18:30;;;;;;;17.13;10.73;;;;;;;10.03;80.71;98818.81;5023397;28;20119;-62
2022/04/25 02:20:55;;;;;;;18.33;11.10;;;;;;;10.08;80.62;98824.59;5032537;28;20036;-69
2022/04/25 02:23:23;;;;;;;16.63;11.73;;;;;;;10.11;80.39;98824.34;5025198;28;20053;-62
2022/04/25 02:25:48;;;;;;;14.40;9.60;;;;;;;10.11;79.31;98835.00;5033507;28;20056;-64
2022/04/25 02:28:13;;;;;;;15.35;11.35;;;;;;;10.14;79.95;98836.59;5030354;28;20040;-70
2022/04/25 02:30:38;;;;;;;15.85;10.68;;;;;;;10.17;79.97;98837.16;5017977;28;20115;-69
2022/04/25 02:33:02;;;;;;;16.13;9.95;;;;;;;10.13;79.51;98837.56;5000290;28;20048;-63
2022/04/25 02:35:27;;;;;;;14.48;10.43;;;;;;;10.16;79.33;98835.47;5024351;28;20094;-62
2022/04/25 02:37:52;;;;;;;15.65;10.10;;;;;;;10.10;79.52;98837.78;5000695;28;20504;-63
2022/04/25 02:40:16;;;;;;;15.00;10.38;;;;;;;10.16;79.46;98827.47;5035914;28;20499;-66
2022/04/25 02:42:41;;;;;;;12.68;9.05;;;;;;;10.12;79.31;98841.19;5038032;28;20106;-65
2022/04/25 02:45:07;;;;;;;14.77;9.73;;;;;;;10.12;79.40;98843.84;5036538;28;20044;-64
2022/04/25 02:47:31;;;;;;;13.88;8.88;;;;;;;10.13;78.99;98848.22;5037702;28;20051;-63
2022/04/25 02:49:56;;;;;;;16.83;9.25;;;;;;;10.05;79.24;98848.81;5029499;28;20037;-63
2022/04/25 02:52:21;;;;;;;18.23;10.90;;;;;;;10.03;79.26;98848.13;4985895;28;20545;-66
2022/04/25 02:54:46;;;;;;;13.75;9.55;;;;;;;10.06;79.17;98849.66;4984961;28;20056;-64
2022/04/25 02:57:10;;;;;;;13.10;8.52;;;;;;;10.17;79.09;98849.63;4996181;28;20053;-72
2022/04/25 02:59:35;;;;;;;13.38;9.27;;;;;;;10.19;78.28;98855.72;4962839;28;20133;-71
2022/04/25 03:02:00;;;;;;;12.75;9.20;;;;;;;10.19;78.36;98853.91;4985423;28;20512;-71
2022/04/25 03:04:25;;;;;;;17.92;8.57;;;;;;;10.26;77.66;98858.72;4966342;28;20132;-74
2022/04/25 03:06:50;;;;;;;10.65;7.60;;;;;;;10.27;77.29;98855.09;4979043;28;20128;-73
2022/04/25 03:09:15;;;;;;;12.60;7.97;;;;;;;10.29;77.25;98851.31;4961779;28;20038;-71
2022/04/25 03:11:39;;;;;;;15.30;8.75;;;;;;;10.29;77.03;98851.31;4968556;28;20056;-76
2022/04/25 03:14:04;;;;;;;12.63;8.50;;;;;;;10.26;77.10;98848.94;4980227;28;20124;-73
2022/04/25 03:16:29;;;;;;;13.15;8.75;;;;;;;10.27;76.86;98855.09;4997255;28;20574;-77
2022/04/25 03:18:54;;;;;;;15.65;8.50;;;;;;;10.28;76.95;98862.09;4991384;28;20054;-74
2022/04/25 03:21:18;;;;;;;12.38;8.45;;;;;;;10.23;77.30;98850.97;4960688;28;20089;-72
2022/04/25 03:23:43;;;;;;;13.23;8.73;;;;;;;10.31;76.95;98860.03;5004369;28;20111;-73
2022/04/25 03:26:08;;;;;;;13.10;8.40;;;;;;;10.32;76.98;98853.72;5000334;28;20423;-76
2022/04/25 03:28:33;;;;;;;14.02;8.48;;;;;;;10.43;76.83;98853.69;5018843;28;20095;-76
2022/04/25 03:30:58;;;;;;;13.50;8.40;;;;;;;10.51;76.46;98858.34;5017073;28;20103;-74
2022/04/25 03:33:23;;;;;;;11.40;7.70;;;;;;;10.51;75.89;98851.22;5035211;28;20045;-75
2022/04/25 03:35:48;;;;;;;15.60;7.80;;;;;;;10.52;75.42;98850.25;5037843;28;20044;-75
2022/04/25 03:38:16;;;;;;;11.95;7.97;;;;;;;10.56;75.43;98856.16;5038088;28;20048;-76
2022/04/25 03:40:41;;;;;;;11.15;7.40;;;;;;;10.67;75.40;98847.28;5039360;28;20055;-73
2022/04/25 03:43:09;;;;;;;14.15;8.18;;;;;;;10.79;74.91;98851.56;5040450;28;20086;-69
2022/04/25 03:45:34;;;;;;;11.02;7.47;;;;;;;11.04;74.52;98847.66;5039744;28;20048;-67
2022/04/25 03:47:59;;;;;;;15.38;8.02;;;;;;;11.21;73.40;98842.53;5043546;28;20055;-68
2022/04/25 03:50:24;;;;;;;12.38;7.70;;;;;;;11.45;73.07;98850.22;5041056;28;20048;-68
2022/04/25 03:52:49;;;;;;;13.18;8.02;;;;;;;11.63;71.32;98839.75;5049349;28;20098;-67
2022/04/25 03:57:59;;;;;;;11.77;8.27;;;;;;;12.11;70.34;98831.88;5043283;28;20072;-66
2022/04/25 04:00:24;;;;;;;13.65;7.85;;;;;;;12.33;70.04;98834.28;5043334;28;20100;-68
2022/04/25 04:02:49;;;;;;;11.93;7.90;;;;;;;12.42;69.19;98837.94;5042871;28;20060;-66
2022/04/25 04:05:14;;;;;;;10.38;7.93;;;;;;;12.56;68.82;98821.47;5040551;28;20052;-67
2022/04/25 04:07:40;;;;;;;14.20;8.88;;;;;;;12.62;67.54;98831.63;5027559;28;20124;-67
2022/04/25 04:10:06;;;;;;;11.40;7.55;;;;;;;12.62;67.23;98825.41;5025590;28;20051;-68
2022/04/25 04:12:31;;;;;;;11.82;7.50;;;;;;;12.48;67.08;98831.19;5003773;28;20040;-69
2022/04/25 04:14:56;;;;;;;13.95;7.60;;;;;;;12.53;67.34;98816.41;5018138;28;20053;-69
2022/04/25 04:17:21;;;;;;;12.27;7.70;;;;;;;12.54;68.09;98820.75;5017863;28;20045;-73
2022/04/25 04:19:46;;;;;;;14.38;8.15;;;;;;;12.45;67.05;98826.13;5018594;28;20064;-72
2022/04/25 04:22:11;;;;;;;12.18;6.97;;;;;;;12.48;67.67;98829.38;5019273;28;20041;-69
2022/04/25 04:24:36;;;;;;;14.20;9.18;;;;;;;12.52;67.67;98833.47;5020243;28;20049;-70
2022/04/25 04:27:05;;;;;;;11.10;8.05;;;;;;;12.32;67.05;98829.06;5020300;28;20059;-71
2022/04/25 04:29:34;;;;;;;12.77;8.63;;;;;;;12.34;67.91;98829.78;5016903;28;20076;-70
2022/04/25 04:32:06;;;;;;;14.70;8.45;;;;;;;12.42;66.99;98839.75;5000499;28;20048;-69
2022/04/25 04:34:31;;;;;;;12.02;7.90;;;;;;;12.14;67.44;98828.94;5016584;28;20096;-69
2022/04/25 04:36:56;;;;;;;15.05;8.98;;;;;;;12.11;67.89;98825.69;5017199;28;20045;-71
2022/04/25 04:39:21;;;;;;;11.75;7.75;;;;;;;11.98;67.62;98823.28;5017083;28;20045;-69
2022/04/25 04:41:46;;;;;;;9.38;7.03;;;;;;;11.61;67.24;98829.22;5015331;28;20522;-68
2022/04/25 04:44:11;;;;;;;12.43;8.98;;;;;;;11.41;68.91;98831.94;5017382;28;20149;-69
2022/04/25 04:46:36;;;;;;;14.40;8.75;;;;;;;11.37;68.71;98822.53;5017602;28;20045;-69
2022/04/25 04:49:01;;;;;;;15.23;8.18;;;;;;;11.31;68.70;98825.72;4999106;28;20118;-70
2022/04/25 04:51:26;;;;;;;10.13;7.05;;;;;;;11.34;68.82;98826.31;5017292;28;20140;-69
2022/04/25 04:53:50;;;;;;;11.98;8.10;;;;;;;11.41;69.48;98831.94;4998648;28;20515;-69
2022/04/25 04:56:15;;;;;;;10.48;7.45;;;;;;;11.78;68.89;98835.75;4998540;28;20055;-70
2022/04/25 04:58:40;;;;;;;14.85;7.95;;;;;;;12.37;67.36;98840.19;5016664;28;20418;-71
2022/04/25 05:01:05;;;;;;;12.95;7.50;;;;;;;12.71;66.19;98835.25;4998815;28;20047;-69
2022/04/25 05:03:30;;;;;;;13.10;8.25;;;;;;;12.87;65.22;98835.50;4982264;28;20049;-70
2022/04/25 05:05:55;;;;;;;10.13;7.25;;;;;;;13.10;64.34;98838.69;5001308;28;20052;-70
2022/04/25 05:08:20;;;;;;;11.43;7.13;;;;;;;13.09;63.40;98847.72;5006993;28;20036;-69
2022/04/25 05:10:45;;;;;;;11.32;7.70;;;;;;;13.04;64.21;98852.66;5023088;28;20491;-68
2022/04/25 05:13:09;;;;;;;11.43;7.88;;;;;;;13.00;63.67;98848.56;5005295;28;20483;-69
2022/04/25 05:15:36;;;;;;;10.32;7.53;;;;;;;12.90;63.86;98861.97;4999924;28;20079;-70
2022/04/25 05:18:01;;;;;;;10.38;7.25;;;;;;;12.95;63.87;98858.88;5000450;28;20040;-72
2022/04/25 05:20:25;;;;;;;11.95;7.15;;;;;;;13.00;64.03;98851.25;5000136;28;20048;-70
2022/04/25 05:22:52;;;;;;;11.80;7.85;;;;;;;12.95;63.73;98859.72;5017111;28;20075;-70
2022/04/25 05:25:19;;;;;;;11.23;7.05;;;;;;;12.78;64.14;98860.44;4998826;28;20056;-72
2022/04/25 05:27:45;;;;;;;11.82;7.53;;;;;;;12.71;63.92;98862.84;5016061;28;20052;-71
2022/04/25 05:30:11;;;;;;;13.85;8.18;;;;;;;12.70;64.19;98876.34;5016153;28;20052;-70
2022/04/25 05:32:43;;;;;;;14.38;7.22;;;;;;;12.67;63.72;98871.28;5013780;28;20040;-69
2022/04/25 05:35:09;;;;;;;11.48;7.05;;;;;;;12.50;64.00;98872.00;5015538;28;20135;-71
2022/04/25 05:37:33;;;;;;;8.90;6.57;;;;;;;12.28;64.10;98873.97;5014777;28;20045;-69
2022/04/25 05:39:58;;;;;;;12.15;8.25;;;;;;;12.23;64.31;98862.00;4997475;28;20045;-70
2022/04/25 05:42:23;;;;;;;10.40;7.43;;;;;;;12.05;64.61;98861.84;4997193;28;20041;-69
2022/04/25 05:44:48;;;;;;;12.45;8.02;;;;;;;12.02;64.59;98866.59;4997770;28;20057;-69
2022/04/25 05:47:13;;;;;;;10.63;6.93;;;;;;;12.07;64.83;98867.88;5015737;28;20037;-70
2022/04/25 05:52:21;;;;;;;10.55;7.22;;;;;;;12.26;64.55;98870.56;5016217;28;20041;-70
2022/04/25 05:54:46;;;;;;;13.88;7.45;;;;;;;12.19;64.69;98872.09;5013791;28;20051;-70
2022/04/25 05:57:11;;;;;;;12.27;7.68;;;;;;;12.22;64.84;98871.81;4997802;28;20047;-70
2022/04/25 05:59:35;;;;;;;11.45;7.63;;;;;;;12.66;64.15;98873.09;4997729;28;20045;-72
2022/04/25 06:02:00;;;;;;;13.90;8.52;;;;;;;12.95;62.81;98873.09;5015769;28;20069;-70
2022/04/25 06:04:25;;;;;;;10.27;7.30;;;;;;;13.36;61.40;98877.25;5019382;28;20051;-69
2022/04/25 06:06:50;;;;;;;12.10;7.47;;;;;;;14.06;59.78;98873.13;5018353;28;20444;-71
2022/04/25 06:09:16;;;;;;;9.82;6.65;;;;;;;14.51;58.88;98872.28;5017129;28;20132;-69
2022/04/25 06:11:42;;;;;;;8.05;5.93;;;;;;;14.76;57.44;98867.97;5014010;28;20041;-69
2022/04/25 06:14:07;;;;;;;11.50;7.30;;;;;;;14.77;56.94;98867.00;5014557;28;20048;-69
2022/04/25 06:16:32;;;;;;;12.70;7.00;;;;;;;15.01;56.89;98869.03;5015083;28;20099;-68
2022/04/25 06:18:56;;;;;;;11.38;7.70;;;;;;;15.36;55.51;98857.31;4998103;28;20497;-70
2022/04/25 06:21:21;;;;;;;8.93;6.68;;;;;;;16.10;54.79;98857.53;4997801;28;20406;-68
2022/04/25 06:23:46;;;;;;;12.50;7.40;;;;;;;16.32;52.55;98862.28;4997744;28;20049;-70
2022/04/25 06:26:11;;;;;;;11.35;7.18;;;;;;;16.05;52.26;98864.38;5016169;28;20041;-68
2022/04/25 06:28:36;;;;;;;10.43;6.95;;;;;;;15.91;52.50;98855.13;4982131;28;20198;-68
2022/04/25 06:31:01;;;;;;;8.77;6.95;;;;;;;16.20;51.99;98850.16;5017337;28;20106;-67
2022/04/25 06:33:26;;;;;;;14.98;7.07;;;;;;;16.95;50.80;98850.91;5017370;28;20123;-68
2022/04/25 06:35:51;;;;;;;9.90;6.97;;;;;;;17.65;49.61;98834.97;5017034;28;20040;-70
2022/04/25 06:38:18;;;;;;;9.93;6.47;;;;;;;18.52;48.00;98838.38;5017983;28;20069;-71
2022/04/25 06:40:42;;;;;;;7.55;5.88;;;;;;;19.26;45.28;98835.91;5017923;28;20041;-70
2022/04/25 06:43:07;;;;;;;9.95;7.50;;;;;;;19.75;44.27;98839.75;5018788;28;20121;-70
2022/04/25 06:45:33;;;;;;;10.05;7.30;;;;;;;19.91;42.19;98831.47;5017609;28;20048;-71
2022/04/25 06:47:58;;;;;;;10.07;6.57;;;;;;;20.64;41.11;98816.91;5017002;28;20126;-70
2022/04/25 06:50:23;;;;;;;11.75;6.93;;;;;;;21.00;41.14;98816.78;4998320;28;20072;-69
2022/04/25 06:52:48;;;;;;;10.18;7.22;;;;;;;20.77;40.50;98824.28;5017775;28;20102;-68
2022/04/25 06:55:13;;;;;;;11.90;6.80;;;;;;;20.05;42.18;98820.81;5001036;28;20041;-73
2022/04/25 06:57:38;;;;;;;13.07;7.88;;;;;;;19.59;43.29;98821.06;5018995;28;20102;-69
2022/04/25 07:00:04;;;;;;;11.35;6.80;;;;;;;20.49;42.33;98813.41;5001856;28;20037;-69
2022/04/25 07:02:29;;;;;;;11.00;7.13;;;;;;;20.95;39.78;98821.13;5001767;28;20090;-69
2022/04/25 07:04:54;;;;;;;9.10;6.68;;;;;;;21.08;39.18;98818.53;5018171;28;20040;-68
2022/04/25 07:07:19;;;;;;;14.23;7.22;;;;;;;22.03;37.99;98823.31;5018813;28;20041;-69
2022/04/25 07:09:45;;;;;;;10.05;6.70;;;;;;;22.67;36.95;98825.59;5019074;28;20037;-70
2022/04/25 07:12:11;;;;;;;10.25;7.10;;;;;;;23.10;35.09;98828.78;5017976;28;20048;-69
2022/04/25 07:14:36;;;;;;;10.50;6.65;;;;;;;23.63;34.81;98823.28;5000432;28;20384;-69
2022/04/25 07:17:03;;;;;;;9.63;6.53;;;;;;;24.64;33.92;98821.59;5018557;28;20462;-68
2022/04/25 07:19:27;;;;;;;6.63;5.72;;;;;;;25.95;31.70;98832.44;5001004;28;20049;-68
2022/04/25 07:30:03;;;;;;;11.00;5.97;;;;;;;26.52;29.39;98835.72;5037528;28;20075;-68
2022/04/25 07:32:28;;;;;;;11.30;6.65;;;;;;;27.14;28.85;98834.38;5037678;28;20286;-68
2022/04/25 07:34:53;;;;;;;10.82;6.72;;;;;;;28.03;27.18;98829.59;5019405;28;20067;-68
2022/04/25 07:37:22;;;;;;;7.47;6.07;;;;;;;29.12;26.58;98833.91;5019788;28;20059;-68
2022/04/25 07:39:47;;;;;;;7.80;6.85;;;;;;;29.55;25.47;98826.94;5038361;28;20040;-69
2022/04/25 07:42:12;;;;;;;8.50;6.28;;;;;;;29.73;25.25;98821.16;5020824;28;20040;-70
2022/04/25 07:44:37;;;;;;;13.05;7.45;;;;;;;30.35;25.27;98817.31;5038488;28;20053;-70
2022/04/25 07:47:02;;;;;;;7.97;6.63;;;;;;;31.14;24.24;98812.09;5003829;28;20728;-69
2022/04/25 07:49:27;;;;;;;8.00;6.18;;;;;;;31.37;22.97;98812.56;5038113;28;20127;-70
2022/04/25 07:51:53;;;;;;;9.60;6.75;;;;;;;31.89;22.37;98803.53;5020514;28;20048;-63
2022/04/25 07:54:19;;;;;;;9.20;6.22;;;;;;;32.27;21.75;98809.78;5037872;28;20102;-61
2022/04/25 07:56:43;;;;;;;8.77;6.68;;;;;;;32.46;21.42;98827.50;5037651;28;20055;-62
2022/04/25 07:59:09;;;;;;;7.80;6.03;;;;;;;31.66;21.72;98818.56;5037562;28;20040;-63
2022/04/25 08:01:34;;;;;;;9.45;6.88;;;;;;;30.53;22.58;98808.72;5019858;28;20033;-61
2022/04/25 08:04:00;;;;;;;8.45;6.43;;;;;;;30.57;23.12;98821.72;5033925;28;20419;-60
2022/04/25 08:06:24;;;;;;;8.15;6.28;;;;;;;31.17;22.41;98803.28;5019039;28;20507;-61
2022/04/25 08:08:51;;;;;;;7.22;6.03;;;;;;;31.75;22.00;98818.88;5022003;28;20490;-61
2022/04/25 08:11:16;;;;;;;9.73;6.30;;;;;;;31.46;21.90;98803.78;5036562;28;20154;-62
2022/04/25 08:19:08;;;;;;;9.85;6.88;;;;;;;29.65;23.54;98805.13;5036602;28;20484;-61
2022/04/25 08:21:32;;;;;;;9.68;6.07;;;;;;;28.47;24.20;98789.66;5037040;28;20487;-62
2022/04/25 08:23:58;;;;;;;6.63;5.93;;;;;;;28.89;23.81;98779.22;5036346;28;20044;-62
2022/04/25 08:26:24;;;;;;;7.13;5.85;;;;;;;29.96;22.84;98785.22;5036913;28;20052;-63
2022/04/25 08:28:49;;;;;;;8.48;6.45;;;;;;;31.54;21.57;98772.97;5037117;28;20119;-69
2022/04/25 08:31:13;;;;;;;7.82;5.90;;;;;;;31.93;20.50;98773.50;5034704;28;20140;-69
2022/04/25 08:33:38;;;;;;;9.23;7.13;;;;;;;31.70;20.74;98778.34;5035691;28;20060;-70
2022/04/25 08:36:03;;;;;;;8.60;7.00;;;;;;;32.27;20.62;98769.25;5035630;28;20538;-68
2022/04/25 08:38:28;;;;;;;9.05;6.60;;;;;;;32.84;20.04;98757.22;5036420;28;20040;-68
2022/04/25 08:40:54;;;;;;;8.88;6.47;;;;;;;32.73;19.30;98761.88;5036020;28;20093;-70
2022/04/25 08:43:20;;;;;;;8.13;7.32;;;;;;;31.48;20.43;98755.59;5018794;28;20453;-69
2022/04/25 08:45:45;;;;;;;6.15;5.50;;;;;;;32.47;20.37;98746.38;5035798;28;20076;-69
2022/04/25 08:48:10;;;;;;;7.38;6.68;;;;;;;33.95;19.54;98760.91;5035291;28;20120;-70
2022/04/25 08:50:37;;;;;;;9.45;6.82;;;;;;;34.58;18.22;98761.97;5036063;28;20399;-68
2022/04/25 08:53:04;;;;;;;7.20;6.50;;;;;;;34.24;17.83;98750.81;5017872;28;20090;-69
2022/04/25 08:55:29;;;;;;;9.40;6.63;;;;;;;34.46;17.95;98747.66;5036365;28;20055;-68
2022/04/25 08:57:56;;;;;;;7.68;6.82;;;;;;;33.49;18.54;98744.44;5001304;28;20430;-68
2022/04/25 09:00:21;;;;;;;6.53;5.88;;;;;;;32.95;18.48;98728.50;5035675;28;20036;-69
2022/04/25 09:02:47;;;;;;;8.68;6.80;;;;;;;31.89;19.57;98729.09;5034760;28;20124;-69
2022/04/25 09:05:12;;;;;;;10.80;7.35;;;;;;;30.22;21.27;98725.88;5017338;28;20872;-68
2022/04/25 09:07:38;;;;;;;7.10;6.00;;;;;;;30.25;21.54;98732.75;4984474;28;20040;-68
2022/04/25 09:10:08;;;;;;;10.68;6.20;;;;;;;30.31;20.55;98732.56;5037103;28;20048;-70
2022/04/25 09:12:33;;;;;;;8.55;6.47;;;;;;;29.31;21.62;98723.84;5037443;28;20115;-67
2022/04/25 09:14:58;;;;;;;9.05;6.20;;;;;;;30.09;21.69;98729.03;5035702;28;20131;-71
2022/04/25 09:17:23;;;;;;;7.10;6.13;;;;;;;31.29;20.49;98724.06;5018862;28;20044;-68
2022/04/25 09:19:49;;;;;;;11.73;6.93;;;;;;;31.73;20.09;98743.88;5002137;28;20495;-67
2022/04/25 09:22:33;;;;;;;7.90;6.10;;;;;;;31.86;19.77;98720.50;5035769;28;20068;-68
2022/04/25 09:25:04;;;;;;;9.25;6.05;;;;;;;31.51;20.10;98726.66;5035673;28;20075;-69
2022/04/25 09:27:29;;;;;;;8.20;6.55;;;;;;;31.39;19.77;98719.44;5034354;28;20048;-70
2022/04/25 09:29:53;;;;;;;6.82;5.90;;;;;;;31.00;19.89;98713.41;5017612;28;20048;-68
2022/04/25 09:32:19;;;;;;;7.10;6.10;;;;;;;30.04;20.93;98728.13;5034688;28;20087;-68
2022/04/25 09:35:00;;;;;;;7.55;6.40;;;;;;;30.39;21.01;98717.50;5016348;28;20041;-68
2022/04/25 09:37:45;;;;;;;6.97;5.15;;;;;;;30.71;20.41;98712.03;5017086;28;20048;-69
2022/04/25 09:40:10;;;;;;;6.93;5.90;;;;;;;30.70;20.91;98709.59;5035068;28;20510;-69
2022/04/25 09:42:36;;;;;;;5.57;5.07;;;;;;;30.75;20.40;98704.09;5034469;28;20036;-68
2022/04/25 09:45:01;;;;;;;6.47;5.88;;;;;;;31.06;19.78;98678.44;5034775;28;20485;-68
2022/04/25 09:47:29;;;;;;;9.18;5.57;;;;;;;31.83;18.97;98699.81;5034706;28;20048;-68
2022/04/25 09:50:14;;;;;;;6.10;5.50;;;;;;;33.13;18.71;98702.22;5034562;28;20136;-68
2022/04/25 09:53:02;;;;;;;7.72;6.07;;;;;;;34.10;16.58;98700.78;5034897;28;20048;-68
2022/04/25 09:55:29;;;;;;;6.88;6.20;;;;;;;33.26;17.61;98701.69;5017043;28;20859;-68
2022/04/25 09:57:55;;;;;;;7.53;6.50;;;;;;;33.50;17.47;98699.13;5035156;28;20032;-70
2022/04/25 10:00:40;;;;;;;7.05;6.28;;;;;;;34.60;17.65;98710.75;5036448;28;20037;-69
2022/04/25 10:03:06;;;;;;;6.68;6.07;;;;;;;33.41;17.33;98700.81;5035619;28;20044;-68
2022/04/25 10:05:39;;;;;;;8.55;6.55;;;;;;;33.00;18.08;98709.13;5035573;28;20039;-68
2022/04/25 10:08:05;;;;;;;8.85;6.18;;;;;;;33.06;17.55;98707.22;5035567;28;20049;-63
2022/04/25 10:10:31;;;;;;;7.25;6.55;;;;;;;32.33;17.88;98699.16;5035423;28;20813;-63
2022/04/25 10:12:56;;;;;;;7.85;6.30;;;;;;;30.87;19.15;98694.56;5036492;28;20125;-63
2022/04/25 10:15:22;;;;;;;6.72;5.72;;;;;;;30.15;20.19;98683.16;5036657;28;20041;-64
2022/04/25 10:17:48;;;;;;;6.32;5.57;;;;;;;29.35;20.80;98683.81;5036377;28;20154;-62
2022/04/25 10:20:14;;;;;;;6.25;5.40;;;;;;;28.89;21.49;98696.91;5017272;28;20051;-63
2022/04/25 10:22:40;;;;;;;5.82;5.28;;;;;;;28.09;22.62;98702.56;5000546;28;20059;-63
2022/04/25 10:25:05;;;;;;;6.75;5.70;;;;;;;26.84;23.25;98694.91;5000388;28;20120;-63
2022/04/25 10:27:34;;;;;;;7.03;6.03;;;;;;;25.22;25.49;98690.47;5036454;28;20487;-63
2022/04/25 10:30:09;;;;;;;7.57;5.25;;;;;;;23.96;27.66;98696.06;4987120;28;20053;-62
2022/04/25 10:32:33;;;;;;;6.78;5.80;;;;;;;23.59;27.34;98683.31;5020128;28;20098;-63
2022/04/25 10:35:04;;;;;;;6.13;4.40;;;;;;;23.06;28.11;98681.56;5020597;28;20068;-64
2022/04/25 10:37:37;;;;;;;8.02;5.45;;;;;;;22.19;29.93;98678.25;5038854;28;20453;-63
2022/04/25 10:40:06;;;;;;;7.18;5.20;;;;;;;21.74;30.86;98688.75;5004388;28;20040;-63
2022/04/25 10:45:14;;;;;;;6.70;5.53;;;;;;;21.03;31.72;98686.31;5038243;28;20052;-62
2022/04/25 10:48:08;;;;;;;6.43;5.65;;;;;;;20.94;30.98;98676.69;5020868;28;20048;-63
2022/04/25 10:50:53;;;;;;;7.53;5.28;;;;;;;20.06;32.81;98677.22;5026695;28;20059;-69
2022/04/25 10:53:57;;;;;;;7.43;4.88;;;;;;;20.29;32.05;98661.59;5037914;28;20119;-67
2022/04/25 10:56:22;;;;;;;7.38;4.70;;;;;;;19.69;33.04;98666.63;5000619;28;20040;-67
2022/04/25 10:59:16;;;;;;;6.28;5.25;;;;;;;19.48;33.33;98667.41;5018578;28;20056;-66
2022/04/25 11:01:45;;;;;;;5.80;4.75;;;;;;;19.41;33.74;98661.88;5027241;28;20033;-70
2022/04/25 11:04:14;;;;;;;6.72;4.90;;;;;;;19.19;34.81;98663.69;4995257;28;20044;-71
2022/04/25 11:06:38;;;;;;;8.52;6.15;;;;;;;19.09;35.19;98655.06;5038744;28;20047;-72
2022/04/25 11:09:04;;;;;;;6.90;5.28;;;;;;;19.13;35.29;98661.75;5038595;28;20135;-72
2022/04/25 11:11:46;;;;;;;7.55;5.20;;;;;;;19.24;34.49;98668.56;5038397;28;20097;-72
2022/04/25 11:14:13;;;;;;;6.93;5.00;;;;;;;19.42;34.56;98663.56;5038427;28;20049;-73
2022/04/25 11:16:39;;;;;;;7.78;5.15;;;;;;;19.68;34.39;98664.94;5037493;28;20127;-72
2022/04/25 11:19:21;;;;;;;7.95;4.93;;;;;;;19.85;33.51;98667.22;5021346;28;20048;-71
2022/04/25 11:21:55;;;;;;;7.55;4.88;;;;;;;19.53;33.48;98675.78;5043591;28;20037;-72
2022/04/25 11:24:38;;;;;;;7.67;5.47;;;;;;;19.14;34.51;98659.91;5021013;28;20044;-69
2022/04/25 11:27:06;;;;;;;5.75;5.07;;;;;;;19.21;34.62;98660.81;5028464;28;20079;-69
2022/04/25 11:29:31;;;;;;;8.05;5.07;;;;;;;19.04;34.41;98664.75;5037122;28;20041;-72
2022/04/25 11:32:35;;;;;;;5.88;4.93;;;;;;;19.45;33.97;98662.34;5008082;28;20052;-68
2022/04/25 11:35:01;;;;;;;9.73;5.68;;;;;;;19.46;32.83;98658.63;4956393;28;20555;-69
2022/04/25 11:37:29;;;;;;;5.70;4.60;;;;;;;19.56;32.39;98642.97;4943275;28;20070;-65
2022/04/25 11:39:59;;;;;;;5.35;3.90;;;;;;;19.56;32.33;98648.38;4952281;28;20483;-67
2022/04/25 11:42:32;;;;;;;6.32;4.82;;;;;;;19.22;33.19;98654.38;4955025;28;20568;-70
2022/04/25 11:44:58;;;;;;;9.05;4.80;;;;;;;19.18;33.09;98647.69;4969072;28;20058;-69
2022/04/25 11:47:23;;;;;;;5.93;4.65;;;;;;;18.92;33.96;98644.66;4949730;28;20041;-70
2022/04/25 11:49:55;;;;;;;7.03;5.13;;;;;;;18.89;34.33;98643.16;4966119;28;20133;-69
2022/04/25 11:52:20;;;;;;;6.35;4.63;;;;;;;19.03;34.41;98638.78;4971003;28;20053;-73